createdAt,value
2023-07-25T00:00:15.394Z,81.57
2023-07-25T00:01:15.387Z,81.44
2023-07-25T00:02:15.360Z,81.30
2023-07-25T00:03:15.916Z,81.15
2023-07-25T00:04:15.392Z,81.54
2023-07-25T00:05:15.353Z,81.24
2023-07-25T00:06:15.818Z,81.69
2023-07-25T00:07:15.313Z,82.25
2023-07-25T00:08:15.297Z,81.34
2023-07-25T00:09:15.276Z,81.14
2023-07-25T00:10:15.259Z,81.50
2023-07-25T00:11:15.305Z,81.41
2023-07-25T00:12:15.248Z,81.35
2023-07-25T00:13:15.236Z,81.36
2023-07-25T00:14:15.232Z,81.22
2023-07-25T00:15:15.242Z,81.39
2023-07-25T00:16:15.247Z,81.43
2023-07-25T00:17:15.395Z,81.16
2023-07-25T00:18:15.200Z,81.07
2023-07-25T00:19:15.211Z,80.95
2023-07-25T00:20:15.173Z,81.37
2023-07-25T00:21:15.608Z,81.04
2023-07-25T00:22:15.136Z,81.27
2023-07-25T00:23:15.173Z,81.31
2023-07-25T00:24:15.194Z,81.23
2023-07-25T00:25:15.148Z,81.30
2023-07-25T00:26:15.125Z,81.68
2023-07-25T00:27:15.179Z,81.61
2023-07-25T00:28:15.096Z,81.49
2023-07-25T00:29:15.082Z,81.57
2023-07-25T00:30:15.250Z,81.81
2023-07-25T00:31:15.089Z,82.08
2023-07-25T00:32:15.070Z,82.22
2023-07-25T00:33:15.062Z,81.97
2023-07-25T00:34:15.030Z,81.62
2023-07-25T00:35:15.031Z,81.78
2023-07-25T00:36:15.058Z,81.68
2023-07-25T00:37:15.001Z,81.62
2023-07-25T00:38:14.989Z,81.63
2023-07-25T00:39:14.996Z,82.07
2023-07-25T00:40:15.183Z,81.80
2023-07-25T00:41:14.957Z,82.04
2023-07-25T00:42:14.944Z,81.97
2023-07-25T00:43:14.926Z,81.65
2023-07-25T00:44:14.931Z,81.59
2023-07-25T00:45:14.919Z,81.24
2023-07-25T00:46:15.195Z,81.18
2023-07-25T00:47:14.905Z,81.05
2023-07-25T00:48:14.875Z,81.28
2023-07-25T00:49:14.881Z,81.34
2023-07-25T00:50:14.893Z,81.43
2023-07-25T00:51:14.861Z,81.47
2023-07-25T00:52:14.883Z,81.69
2023-07-25T00:53:14.842Z,81.78
2023-07-25T00:54:14.835Z,81.72
2023-07-25T00:55:14.819Z,81.44
2023-07-25T00:56:14.850Z,81.34
2023-07-25T00:57:14.793Z,81.67
2023-07-25T00:58:14.804Z,81.42
2023-07-25T00:59:14.767Z,81.94
2023-07-25T01:00:14.779Z,82.09
2023-07-25T01:01:14.790Z,81.79
2023-07-25T01:02:14.819Z,81.31
2023-07-25T01:03:14.836Z,81.03
2023-07-25T01:04:14.728Z,81.10
2023-07-25T01:05:14.752Z,80.81
2023-07-25T01:06:14.703Z,81.21
2023-07-25T01:07:14.686Z,81.32
2023-07-25T01:08:14.707Z,81.43
2023-07-25T01:09:14.786Z,81.67
2023-07-25T01:10:14.660Z,81.65
2023-07-25T01:11:14.658Z,81.82
2023-07-25T01:12:14.647Z,81.77
2023-07-25T01:13:14.638Z,81.65
2023-07-25T01:14:14.608Z,81.44
2023-07-25T01:15:14.625Z,81.45
2023-07-25T01:16:14.630Z,81.31
2023-07-25T01:17:14.636Z,81.27
2023-07-25T01:18:14.600Z,81.64
2023-07-25T01:19:14.566Z,81.78
2023-07-25T01:20:14.571Z,81.73
2023-07-25T01:21:14.547Z,82.15
2023-07-25T01:22:14.670Z,82.19
2023-07-25T01:23:14.534Z,82.34
2023-07-25T01:24:14.549Z,82.35
2023-07-25T01:25:14.503Z,82.03
2023-07-25T01:26:14.525Z,81.99
2023-07-25T01:27:14.502Z,82.51
2023-07-25T01:28:14.509Z,82.69
2023-07-25T01:29:14.452Z,82.41
2023-07-25T01:30:14.448Z,82.03
2023-07-25T01:31:14.458Z,82.38
2023-07-25T01:32:14.424Z,82.52
2023-07-25T01:33:14.418Z,82.94
2023-07-25T01:34:14.489Z,82.94
2023-07-25T01:35:14.402Z,82.31
2023-07-25T01:36:14.381Z,82.39
2023-07-25T01:37:14.386Z,83.10
2023-07-25T01:38:14.406Z,83.29
2023-07-25T01:39:14.367Z,82.67
2023-07-25T01:40:14.355Z,83.08
2023-07-25T01:41:14.461Z,82.97
2023-07-25T01:42:14.388Z,82.97
2023-07-25T01:43:14.337Z,82.58
2023-07-25T01:44:14.409Z,82.39
2023-07-25T01:45:14.302Z,82.76
2023-07-25T01:46:14.347Z,82.53
2023-07-25T01:47:14.280Z,82.26
2023-07-25T01:48:14.272Z,82.79
2023-07-25T01:49:14.248Z,83.02
2023-07-25T01:50:14.285Z,82.88
2023-07-25T01:51:14.246Z,82.94
2023-07-25T01:52:14.235Z,83.21
2023-07-25T01:53:14.266Z,83.13
2023-07-25T01:54:14.204Z,82.83
2023-07-25T01:55:14.210Z,82.49
2023-07-25T01:56:14.213Z,83.18
2023-07-25T01:57:14.243Z,83.27
2023-07-25T01:58:14.175Z,82.98
2023-07-25T01:59:14.168Z,82.62
2023-07-25T02:00:14.152Z,82.27
2023-07-25T02:01:14.184Z,82.55
2023-07-25T02:02:14.161Z,82.82
2023-07-25T02:03:14.158Z,82.89
2023-07-25T02:04:14.112Z,82.96
2023-07-25T02:05:14.110Z,82.97
2023-07-25T02:06:14.079Z,83.23
2023-07-25T02:07:14.121Z,82.93
2023-07-25T02:08:14.092Z,82.88
2023-07-25T02:09:14.040Z,83.14
2023-07-25T02:10:14.086Z,82.69
2023-07-25T02:11:14.024Z,82.75
2023-07-25T02:12:14.008Z,82.77
2023-07-25T02:13:14.039Z,83.17
2023-07-25T02:14:14.033Z,83.30
2023-07-25T02:15:13.977Z,83.13
2023-07-25T02:16:13.997Z,83.61
2023-07-25T02:17:13.964Z,83.79
2023-07-25T02:18:13.977Z,83.77
2023-07-25T02:19:14.014Z,83.18
2023-07-25T02:20:13.970Z,83.23
2023-07-25T02:21:13.935Z,83.19
2023-07-25T02:22:13.943Z,82.95
2023-07-25T02:23:13.890Z,82.83
2023-07-25T02:24:13.930Z,82.91
2023-07-25T02:25:13.896Z,82.46
2023-07-25T02:26:13.886Z,82.61
2023-07-25T02:27:13.885Z,82.73
2023-07-25T02:28:13.849Z,82.83
2023-07-25T02:29:13.855Z,82.72
2023-07-25T02:30:13.850Z,82.63
2023-07-25T02:31:13.879Z,82.79
2023-07-25T02:32:13.802Z,82.80
2023-07-25T02:33:13.832Z,82.63
2023-07-25T02:34:13.799Z,83.41
2023-07-25T02:35:13.816Z,82.89
2023-07-25T02:36:13.773Z,83.26
2023-07-25T02:37:13.857Z,83.02
2023-07-25T02:38:13.775Z,82.97
2023-07-25T02:39:13.761Z,84.08
2023-07-25T02:40:13.726Z,84.05
2023-07-25T02:41:13.799Z,84.04
2023-07-25T02:42:13.709Z,84.36
2023-07-25T02:43:13.726Z,84.18
2023-07-25T02:44:13.678Z,84.08
2023-07-25T02:45:13.688Z,84.09
2023-07-25T02:46:13.806Z,83.72
2023-07-25T02:47:13.687Z,83.74
2023-07-25T02:48:13.664Z,84.02
2023-07-25T02:49:13.639Z,84.48
2023-07-25T02:50:13.628Z,84.61
2023-07-25T02:51:13.633Z,84.25
2023-07-25T02:52:13.697Z,84.07
2023-07-25T02:53:13.607Z,84.22
2023-07-25T02:54:13.632Z,84.31
2023-07-25T02:55:13.583Z,84.88
2023-07-25T02:56:13.598Z,84.85
2023-07-25T02:57:13.598Z,85.15
2023-07-25T02:58:13.532Z,85.23
2023-07-25T02:59:13.595Z,85.38
2023-07-25T03:00:13.609Z,85.00
2023-07-25T03:01:13.560Z,84.77
2023-07-25T03:02:13.531Z,84.42
2023-07-25T03:03:13.595Z,84.16
2023-07-25T03:04:13.510Z,84.38
2023-07-25T03:05:13.531Z,84.75
2023-07-25T03:06:13.512Z,84.79
2023-07-25T03:07:13.505Z,84.91
2023-07-25T03:08:13.531Z,84.96
2023-07-25T03:09:13.480Z,84.77
2023-07-25T03:10:13.435Z,85.08
2023-07-25T03:11:13.416Z,84.95
2023-07-25T03:12:13.409Z,85.36
2023-07-25T03:13:13.398Z,84.91
2023-07-25T03:14:13.376Z,85.56
2023-07-25T03:15:13.365Z,85.18
2023-07-25T03:16:13.470Z,85.16
2023-07-25T03:17:13.357Z,85.03
2023-07-25T03:18:13.418Z,84.66
2023-07-25T03:19:13.410Z,85.09
2023-07-25T03:20:13.328Z,84.73
2023-07-25T03:21:13.343Z,84.32
2023-07-25T03:22:13.325Z,85.04
2023-07-25T03:23:13.335Z,85.06
2023-07-25T03:24:13.396Z,84.99
2023-07-25T03:25:13.380Z,85.14
2023-07-25T03:26:13.283Z,85.23
2023-07-25T03:27:13.271Z,85.05
2023-07-25T03:28:13.246Z,84.80
2023-07-25T03:29:13.241Z,84.83
2023-07-25T03:30:13.352Z,84.73
2023-07-25T03:31:13.203Z,84.45
2023-07-25T03:32:13.216Z,84.42
2023-07-25T03:33:13.194Z,84.49
2023-07-25T03:34:13.210Z,84.51
2023-07-25T03:35:13.177Z,84.74
2023-07-25T03:36:13.152Z,84.97
2023-07-25T03:37:13.133Z,85.39
2023-07-25T03:38:13.191Z,85.03
2023-07-25T03:39:13.130Z,84.91
2023-07-25T03:40:13.151Z,85.07
2023-07-25T03:41:13.164Z,85.74
2023-07-25T03:42:13.077Z,85.66
2023-07-25T03:43:13.074Z,85.52
2023-07-25T03:44:13.084Z,85.20
2023-07-25T03:45:13.072Z,85.17
2023-07-25T03:46:13.121Z,85.13
2023-07-25T03:47:13.036Z,85.06
2023-07-25T03:48:13.017Z,85.61
2023-07-25T03:49:13.025Z,85.78
2023-07-25T03:50:13.011Z,85.60
2023-07-25T03:51:12.989Z,85.77
2023-07-25T03:52:13.005Z,85.70
2023-07-25T03:53:12.998Z,85.46
2023-07-25T03:54:12.980Z,84.97
2023-07-25T03:55:12.949Z,85.69
2023-07-25T03:56:12.939Z,85.79
2023-07-25T03:57:12.948Z,85.82
2023-07-25T03:58:12.942Z,85.75
2023-07-25T03:59:12.908Z,85.52
2023-07-25T04:00:12.986Z,85.57
2023-07-25T04:01:12.999Z,85.99
2023-07-25T04:02:12.972Z,86.04
2023-07-25T04:03:15.353Z,85.87
2023-07-25T04:04:12.929Z,85.87
2023-07-25T04:05:12.927Z,85.45
2023-07-25T04:06:12.869Z,85.69
2023-07-25T04:07:12.894Z,85.71
2023-07-25T04:08:12.831Z,85.73
2023-07-25T04:09:12.814Z,85.75
2023-07-25T04:10:12.882Z,85.44
2023-07-25T04:11:12.837Z,85.82
2023-07-25T04:12:12.822Z,85.78
2023-07-25T04:13:12.773Z,85.89
2023-07-25T04:14:12.765Z,85.89
2023-07-25T04:15:12.757Z,86.33
2023-07-25T04:16:12.787Z,85.96
2023-07-25T04:17:12.718Z,85.59
2023-07-25T04:18:12.757Z,86.41
2023-07-25T04:19:12.777Z,86.61
2023-07-25T04:20:12.712Z,86.69
2023-07-25T04:21:12.690Z,86.72
2023-07-25T04:22:12.721Z,86.65
2023-07-25T04:23:12.682Z,86.42
2023-07-25T04:24:12.679Z,85.88
2023-07-25T04:25:12.661Z,86.15
2023-07-25T04:26:12.646Z,85.74
2023-07-25T04:27:12.647Z,85.87
2023-07-25T04:28:12.616Z,86.08
2023-07-25T04:29:12.637Z,85.73
2023-07-25T04:30:12.595Z,85.52
2023-07-25T04:31:12.606Z,85.70
2023-07-25T04:32:12.599Z,86.66
2023-07-25T04:33:12.548Z,86.47
2023-07-25T04:34:12.578Z,86.53
2023-07-25T04:35:12.551Z,86.35
2023-07-25T04:36:12.548Z,86.49
2023-07-25T04:37:12.515Z,86.39
2023-07-25T04:38:12.518Z,85.90
2023-07-25T04:39:12.523Z,86.21
2023-07-25T04:40:12.546Z,86.43
2023-07-25T04:41:12.489Z,86.55
2023-07-25T04:42:12.494Z,86.08
2023-07-25T04:43:12.464Z,86.29
2023-07-25T04:44:12.492Z,86.32
2023-07-25T04:45:12.430Z,85.96
2023-07-25T04:46:12.511Z,85.88
2023-07-25T04:47:12.459Z,86.37
2023-07-25T04:48:12.410Z,86.49
2023-07-25T04:49:12.448Z,86.07
2023-07-25T04:50:12.402Z,86.25
2023-07-25T04:51:12.386Z,85.78
2023-07-25T04:52:12.391Z,86.05
2023-07-25T04:53:12.382Z,86.57
2023-07-25T04:54:12.353Z,86.01
2023-07-25T04:55:12.337Z,86.04
2023-07-25T04:56:12.326Z,85.83
2023-07-25T04:57:12.327Z,85.63
2023-07-25T04:58:12.291Z,85.73
2023-07-25T04:59:12.324Z,85.60
2023-07-25T05:00:12.275Z,85.57
2023-07-25T05:01:12.297Z,85.54
2023-07-25T05:02:12.291Z,85.29
2023-07-25T05:03:12.296Z,85.09
2023-07-25T05:04:12.259Z,85.45
2023-07-25T05:05:12.256Z,86.14
2023-07-25T05:06:12.234Z,86.26
2023-07-25T05:07:12.243Z,86.10
2023-07-25T05:08:12.247Z,85.95
2023-07-25T05:09:12.187Z,85.89
2023-07-25T05:10:12.201Z,85.77
2023-07-25T05:11:12.221Z,85.88
2023-07-25T05:12:12.176Z,85.49
2023-07-25T05:13:12.142Z,85.84
2023-07-25T05:14:12.195Z,85.53
2023-07-25T05:15:12.152Z,85.60
2023-07-25T05:16:12.169Z,85.83
2023-07-25T05:17:12.345Z,85.60
2023-07-25T05:18:12.104Z,85.54
2023-07-25T05:19:12.124Z,85.53
2023-07-25T05:20:12.472Z,85.65
2023-07-25T05:21:12.105Z,85.70
2023-07-25T05:22:12.856Z,85.54
2023-07-25T05:23:12.077Z,85.88
2023-07-25T05:24:12.126Z,85.66
2023-07-25T05:25:12.022Z,85.59
2023-07-25T05:26:12.027Z,85.90
2023-07-25T05:27:12.003Z,85.70
2023-07-25T05:28:11.986Z,85.49
2023-07-25T05:29:11.998Z,85.40
2023-07-25T05:30:11.990Z,85.40
2023-07-25T05:31:12.059Z,85.29
2023-07-25T05:32:11.989Z,85.06
2023-07-25T05:33:11.997Z,85.45
2023-07-25T05:34:11.949Z,85.90
2023-07-25T05:35:11.911Z,85.98
2023-07-25T05:36:11.955Z,85.38
2023-07-25T05:37:11.964Z,85.09
2023-07-25T05:38:11.893Z,84.97
2023-07-25T05:39:11.897Z,84.82
2023-07-25T05:40:11.863Z,85.01
2023-07-25T05:41:11.936Z,85.27
2023-07-25T05:42:13.824Z,85.13
2023-07-25T05:43:11.843Z,83.89
2023-07-25T05:44:13.294Z,84.83
2023-07-25T05:45:12.844Z,85.34
2023-07-25T05:46:11.867Z,85.36
2023-07-25T05:47:11.797Z,84.87
2023-07-25T05:48:11.768Z,85.05
2023-07-25T05:49:11.781Z,84.99
2023-07-25T05:50:11.793Z,84.42
2023-07-25T05:51:11.772Z,84.08
2023-07-25T05:52:11.733Z,83.80
2023-07-25T05:53:11.734Z,83.77
2023-07-25T05:54:12.184Z,83.27
2023-07-25T05:55:11.770Z,82.78
2023-07-25T05:56:12.081Z,83.06
2023-07-25T05:57:11.713Z,83.32
2023-07-25T05:58:11.663Z,82.51
2023-07-25T05:59:11.668Z,83.23
2023-07-25T06:00:11.684Z,83.31
2023-07-25T06:01:11.679Z,83.61
2023-07-25T06:02:11.640Z,83.22
2023-07-25T06:03:11.749Z,82.63
2023-07-25T06:04:11.604Z,82.23
2023-07-25T06:05:11.603Z,82.51
2023-07-25T06:06:11.604Z,82.90
2023-07-25T06:07:11.612Z,82.33
2023-07-25T06:08:11.575Z,82.68
2023-07-25T06:09:11.598Z,82.00
2023-07-25T06:10:11.542Z,82.35
2023-07-25T06:11:11.539Z,82.88
2023-07-25T06:12:11.537Z,82.89
2023-07-25T06:13:11.563Z,81.88
2023-07-25T06:14:11.509Z,81.97
2023-07-25T06:15:11.551Z,82.24
2023-07-25T06:16:11.504Z,82.97
2023-07-25T06:17:11.510Z,82.85
2023-07-25T06:18:11.610Z,83.22
2023-07-25T06:19:11.502Z,82.83
2023-07-25T06:20:11.473Z,82.52
2023-07-25T06:21:11.420Z,81.78
2023-07-25T06:22:11.565Z,81.73
2023-07-25T06:23:11.423Z,81.65
2023-07-25T06:24:11.403Z,81.51
2023-07-25T06:25:11.402Z,81.77
2023-07-25T06:26:11.424Z,81.03
2023-07-25T06:27:11.374Z,80.75
2023-07-25T06:28:11.355Z,81.35
2023-07-25T06:29:11.359Z,81.83
2023-07-25T06:30:11.340Z,81.24
2023-07-25T06:31:11.393Z,80.80
2023-07-25T06:32:11.370Z,80.17
2023-07-25T06:33:11.370Z,80.36
2023-07-25T06:34:11.295Z,80.10
2023-07-25T06:35:11.325Z,80.59
2023-07-25T06:36:11.294Z,80.30
2023-07-25T06:37:11.338Z,80.02
2023-07-25T06:38:11.246Z,78.93
2023-07-25T06:39:11.258Z,78.63
2023-07-25T06:40:11.359Z,78.58
2023-07-25T06:41:11.241Z,78.77
2023-07-25T06:42:11.256Z,79.27
2023-07-25T06:43:11.205Z,79.08
2023-07-25T06:44:12.981Z,78.25
2023-07-25T06:45:11.180Z,78.94
2023-07-25T06:46:11.280Z,78.15
2023-07-25T06:47:11.277Z,78.33
2023-07-25T06:48:11.454Z,78.92
2023-07-25T06:49:11.249Z,79.38
2023-07-25T06:50:11.225Z,78.92
2023-07-25T06:51:11.217Z,78.92
2023-07-25T06:52:11.156Z,78.24
2023-07-25T06:53:11.145Z,78.19
2023-07-25T06:54:11.155Z,77.55
2023-07-25T06:55:11.151Z,77.65
2023-07-25T06:56:11.106Z,77.00
2023-07-25T06:57:11.076Z,77.32
2023-07-25T06:58:13.620Z,76.53
2023-07-25T06:59:11.167Z,76.80
2023-07-25T07:00:11.030Z,77.22
2023-07-25T07:01:11.067Z,77.06
2023-07-25T07:02:11.089Z,76.50
2023-07-25T07:03:11.634Z,77.11
2023-07-25T07:20:37.210Z,74.58
2023-07-25T07:21:38.239Z,74.81
2023-07-25T07:22:38.602Z,74.96
2023-07-25T07:23:37.985Z,74.75
2023-07-25T07:24:37.964Z,74.92
2023-07-25T07:25:38.127Z,73.77
2023-07-25T07:26:38.181Z,74.99
2023-07-25T07:27:37.935Z,75.01
2023-07-25T07:28:37.945Z,75.38
2023-07-25T07:29:37.886Z,75.15
2023-07-25T07:30:38.014Z,74.68
2023-07-25T07:31:39.069Z,73.70
2023-07-25T07:32:37.838Z,74.97
2023-07-25T07:33:40.691Z,75.11
2023-07-25T07:34:38.649Z,75.48
2023-07-25T07:35:37.768Z,74.60
2023-07-25T07:36:37.920Z,73.79
2023-07-25T07:37:37.978Z,72.89
2023-07-25T07:38:37.806Z,72.29
2023-07-25T07:39:37.797Z,72.51
2023-07-25T07:40:37.812Z,72.32
2023-07-25T07:41:37.794Z,71.94
2023-07-25T07:42:37.828Z,70.51
2023-07-25T07:43:37.819Z,71.83
2023-07-25T07:44:37.788Z,71.23
2023-07-25T07:45:37.767Z,70.54
2023-07-25T07:46:38.058Z,71.63
2023-07-25T07:47:38.196Z,71.85
2023-07-25T07:48:37.854Z,72.07
2023-07-25T07:49:37.745Z,72.75
2023-07-25T07:50:37.839Z,72.51
2023-07-25T07:59:09.248Z,71.32
2023-07-25T08:00:10.302Z,72.40
2023-07-25T08:01:10.312Z,70.57
2023-07-25T08:02:10.253Z,71.65
2023-07-25T08:03:10.413Z,72.07
2023-07-25T08:04:10.270Z,71.13
2023-07-25T08:05:10.248Z,72.23
2023-07-25T08:06:10.219Z,72.30
2023-07-25T08:07:10.177Z,72.28
2023-07-25T08:08:10.197Z,71.32
2023-07-25T08:09:10.139Z,72.44
2023-07-25T08:10:10.135Z,70.74
2023-07-25T08:11:10.099Z,70.26
2023-07-25T08:12:10.125Z,70.36
2023-07-25T08:13:10.144Z,70.23
2023-07-25T08:14:10.063Z,70.42
2023-07-25T08:15:10.076Z,69.97
2023-07-25T08:16:10.124Z,69.49
2023-07-25T08:17:10.091Z,67.58
2023-07-25T08:18:10.037Z,67.65
2023-07-25T08:19:10.008Z,68.32
2023-07-25T08:20:10.014Z,68.58
2023-07-25T08:21:09.996Z,68.57
2023-07-25T08:22:10.024Z,68.03
2023-07-25T08:23:10.037Z,68.02
2023-07-25T08:24:10.018Z,68.80
2023-07-25T08:25:10.004Z,69.61
2023-07-25T08:26:09.970Z,70.07
2023-07-25T08:27:09.933Z,69.13
2023-07-25T08:28:09.936Z,68.94
2023-07-25T08:29:09.935Z,69.24
2023-07-25T08:30:09.922Z,69.78
2023-07-25T08:31:10.470Z,68.93
2023-07-25T08:32:09.934Z,69.48
2023-07-25T08:33:09.992Z,68.40
2023-07-25T08:34:09.944Z,68.57
2023-07-25T08:35:09.863Z,68.66
2023-07-25T08:36:09.841Z,67.64
2023-07-25T08:37:10.043Z,68.36
2023-07-25T08:38:09.821Z,68.31
2023-07-25T08:39:09.851Z,68.53
2023-07-25T08:40:09.800Z,67.76
2023-07-25T08:41:09.772Z,67.92
2023-07-25T08:42:09.875Z,67.66
2023-07-25T08:43:09.792Z,68.09
2023-07-25T08:44:09.756Z,68.00
2023-07-25T08:45:10.004Z,68.70
2023-07-25T08:46:10.022Z,69.00
2023-07-25T08:47:09.968Z,69.40
2023-07-25T08:48:09.865Z,69.93
2023-07-25T08:49:09.730Z,68.47
2023-07-25T08:50:09.754Z,68.44
2023-07-25T08:51:09.715Z,69.83
2023-07-25T08:52:09.757Z,68.37
2023-07-25T08:53:09.696Z,69.15
2023-07-25T08:54:09.843Z,68.12
2023-07-25T08:55:09.677Z,68.13
2023-07-25T08:56:09.672Z,68.53
2023-07-25T08:57:09.718Z,68.73
2023-07-25T08:58:09.643Z,68.70
2023-07-25T08:59:09.618Z,69.25
2023-07-25T09:00:09.638Z,68.35
2023-07-25T09:01:09.628Z,68.56
2023-07-25T09:02:09.606Z,68.81
2023-07-25T09:03:09.694Z,68.68
2023-07-25T09:04:09.575Z,68.55
2023-07-25T09:05:09.590Z,67.22
2023-07-25T09:06:09.572Z,68.23
2023-07-25T09:07:09.519Z,68.46
2023-07-25T09:08:09.532Z,67.21
2023-07-25T09:09:09.504Z,68.31
2023-07-25T09:10:09.513Z,67.77
2023-07-25T09:11:09.644Z,68.85
2023-07-25T09:12:09.488Z,66.38
2023-07-25T09:13:09.472Z,66.34
2023-07-25T09:14:09.440Z,66.48
2023-07-25T09:15:09.469Z,66.82
2023-07-25T09:16:09.497Z,65.83
2023-07-25T09:17:09.454Z,65.30
2023-07-25T09:18:09.440Z,65.57
2023-07-25T09:19:09.414Z,67.42
2023-07-25T09:20:09.429Z,67.16
2023-07-25T09:21:09.447Z,66.17
2023-07-25T09:22:09.456Z,65.92
2023-07-25T09:23:09.349Z,66.80
2023-07-25T09:24:09.370Z,65.42
2023-07-25T09:25:09.338Z,65.88
2023-07-25T09:26:09.523Z,65.80
2023-07-25T09:27:10.347Z,66.44
2023-07-25T09:28:09.350Z,66.31
2023-07-25T09:29:09.287Z,66.28
2023-07-25T09:30:09.296Z,64.98
2023-07-25T09:31:09.311Z,66.16
2023-07-25T09:32:09.335Z,66.34
2023-07-25T09:33:09.270Z,65.64
2023-07-25T09:34:09.252Z,66.66
2023-07-25T09:35:09.226Z,66.02
2023-07-25T09:36:09.223Z,67.68
2023-07-25T09:37:09.321Z,68.07
2023-07-25T09:38:09.611Z,68.83
2023-07-25T09:39:09.233Z,69.17
2023-07-25T09:40:09.217Z,69.01
2023-07-25T09:41:10.040Z,68.79
2023-07-25T09:42:09.467Z,69.76
2023-07-25T09:43:09.140Z,69.21
2023-07-25T09:44:09.185Z,68.75
2023-07-25T09:45:09.184Z,68.00
2023-07-25T09:46:09.230Z,68.19
2023-07-25T09:47:09.116Z,68.85
2023-07-25T09:48:09.232Z,69.48
2023-07-25T09:49:09.142Z,69.67
2023-07-25T09:50:09.117Z,70.05
2023-07-25T09:51:09.105Z,68.70
2023-07-25T09:52:09.029Z,69.40
2023-07-25T09:53:09.020Z,69.04
2023-07-25T09:54:09.073Z,69.76
2023-07-25T09:55:09.062Z,69.83
2023-07-25T09:56:09.012Z,69.62
2023-07-25T09:57:09.047Z,70.31
2023-07-25T09:58:08.987Z,69.17
2023-07-25T09:59:08.974Z,68.55
2023-07-25T10:00:09.036Z,69.32
2023-07-25T10:01:09.037Z,69.21
2023-07-25T10:02:10.918Z,70.13
2023-07-25T10:03:09.070Z,70.07
2023-07-25T10:04:08.933Z,69.70
2023-07-25T10:05:08.901Z,70.85
2023-07-25T10:06:08.883Z,69.46
2023-07-25T10:07:08.910Z,70.09
2023-07-25T10:08:08.900Z,70.14
2023-07-25T10:09:08.854Z,70.99
2023-07-25T10:10:09.514Z,69.45
2023-07-25T10:11:08.919Z,69.23
2023-07-25T10:12:08.946Z,69.51
2023-07-25T10:13:09.012Z,69.58
2023-07-25T10:14:10.427Z,69.68
2023-07-25T10:15:08.778Z,69.63
2023-07-25T10:16:08.771Z,69.41
2023-07-25T10:17:08.894Z,69.73
2023-07-25T10:18:08.760Z,70.31
2023-07-25T10:19:08.768Z,70.02
2023-07-25T10:20:11.682Z,69.92
2023-07-25T10:21:08.720Z,70.59
2023-07-25T10:22:08.736Z,70.41
2023-07-25T10:23:08.747Z,70.43
2023-07-25T10:24:08.688Z,70.69
2023-07-25T10:25:08.689Z,70.69
2023-07-25T10:26:10.457Z,69.65
2023-07-25T10:27:08.657Z,70.81
2023-07-25T10:28:08.654Z,70.16
2023-07-25T10:29:08.712Z,70.40
2023-07-25T10:30:08.617Z,70.99
2023-07-25T10:31:08.675Z,70.59
2023-07-25T10:32:11.659Z,69.30
2023-07-25T10:33:08.647Z,68.13
2023-07-25T10:34:08.630Z,68.86
2023-07-25T10:35:08.564Z,69.84
2023-07-25T10:36:08.570Z,69.00
2023-07-25T10:37:08.555Z,68.16
2023-07-25T10:38:09.771Z,67.36
2023-07-25T10:39:08.538Z,66.55
2023-07-25T10:40:08.590Z,67.42
2023-07-25T10:41:08.548Z,68.07
2023-07-25T10:42:08.508Z,67.90
2023-07-25T10:43:08.517Z,67.70
2023-07-25T10:44:08.477Z,67.43
2023-07-25T10:45:08.538Z,68.06
2023-07-25T10:46:08.449Z,68.21
2023-07-25T10:47:08.509Z,67.90
2023-07-25T10:48:08.572Z,68.45
2023-07-25T10:49:08.429Z,68.38
2023-07-25T10:50:08.403Z,69.32
2023-07-25T10:51:08.568Z,68.95
2023-07-25T10:52:08.430Z,67.85
2023-07-25T10:53:08.383Z,67.62
2023-07-25T10:54:09.022Z,65.98
2023-07-25T10:55:08.411Z,64.59
2023-07-25T10:56:10.432Z,65.01
2023-07-25T10:57:08.321Z,65.45
2023-07-25T10:58:08.354Z,65.19
2023-07-25T10:59:08.326Z,64.18
2023-07-25T11:00:08.409Z,65.85
2023-07-25T11:01:08.373Z,64.33
2023-07-25T11:02:08.419Z,64.37
2023-07-25T11:03:08.268Z,64.41
2023-07-25T11:04:08.352Z,62.71
2023-07-25T11:05:08.246Z,62.94
2023-07-25T11:06:08.271Z,63.13
2023-07-25T11:07:08.222Z,63.01
2023-07-25T11:08:08.291Z,63.16
2023-07-25T11:09:08.233Z,63.28
2023-07-25T11:10:08.238Z,64.04
2023-07-25T11:11:08.180Z,63.87
2023-07-25T11:12:08.172Z,62.83
2023-07-25T11:13:08.207Z,63.25
2023-07-25T11:14:08.156Z,62.25
2023-07-25T11:15:08.176Z,62.30
2023-07-25T11:16:08.863Z,61.44
2023-07-25T11:17:08.160Z,62.61
2023-07-25T11:18:08.123Z,63.39
2023-07-25T11:19:08.174Z,62.38
2023-07-25T11:20:08.159Z,62.98
2023-07-25T11:21:08.110Z,62.98
2023-07-25T11:22:08.070Z,62.90
2023-07-25T11:23:08.073Z,62.05
2023-07-25T11:24:08.837Z,60.94
2023-07-25T11:25:08.033Z,60.05
2023-07-25T11:26:08.040Z,58.99
2023-07-25T11:27:08.055Z,58.62
2023-07-25T11:28:08.031Z,58.83
2023-07-25T11:29:07.988Z,58.60
2023-07-25T11:30:07.978Z,59.14
2023-07-25T11:31:08.040Z,59.74
2023-07-25T11:32:07.970Z,60.34
2023-07-25T11:33:07.954Z,60.17
2023-07-25T11:34:07.934Z,59.45
2023-07-25T11:35:07.938Z,59.05
2023-07-25T11:36:07.913Z,59.46
2023-07-25T11:37:07.902Z,59.44
2023-07-25T11:38:07.932Z,59.38
2023-07-25T11:39:07.870Z,59.14
2023-07-25T11:40:07.868Z,58.00
2023-07-25T11:41:07.868Z,58.47
2023-07-25T11:42:08.491Z,58.19
2023-07-25T11:43:07.831Z,57.71
2023-07-25T11:44:07.841Z,59.40
2023-07-25T11:45:07.815Z,58.91
2023-07-25T11:46:07.848Z,60.22
2023-07-25T11:47:07.785Z,60.30
2023-07-25T11:48:07.840Z,60.22
2023-07-25T11:49:07.775Z,59.92
2023-07-25T11:50:21.392Z,60.32
2023-07-25T11:51:07.750Z,61.16
2023-07-25T11:52:07.742Z,62.01
2023-07-25T11:53:07.728Z,61.92
2023-07-25T11:54:07.766Z,63.24
2023-07-25T11:55:07.713Z,62.84
2023-07-25T11:56:07.693Z,62.51
2023-07-25T11:57:07.903Z,63.55
2023-07-25T11:58:07.677Z,63.14
2023-07-25T11:59:07.742Z,63.47
2023-07-25T12:00:07.738Z,62.87
2023-07-25T12:01:07.840Z,62.60
2023-07-25T12:02:07.730Z,63.57
2023-07-25T12:03:07.661Z,62.86
2023-07-25T12:04:07.655Z,61.45
2023-07-25T12:05:07.595Z,63.17
2023-07-25T12:06:07.621Z,62.57
2023-07-25T12:07:07.608Z,61.75
2023-07-25T12:08:07.611Z,63.01
2023-07-25T12:09:07.830Z,62.91
2023-07-25T12:10:07.563Z,62.69
2023-07-25T12:11:07.575Z,62.69
2023-07-25T12:12:07.572Z,62.81
2023-07-25T12:13:07.565Z,63.37
2023-07-25T12:14:07.540Z,62.32
2023-07-25T12:15:07.510Z,62.09
2023-07-25T12:16:07.598Z,62.07
2023-07-25T12:17:07.513Z,62.19
2023-07-25T12:18:07.502Z,62.75
2023-07-25T12:19:07.465Z,62.55
2023-07-25T12:20:07.520Z,63.12
2023-07-25T12:21:07.515Z,63.39
2023-07-25T12:22:07.447Z,63.68
2023-07-25T12:23:07.409Z,63.79
2023-07-25T12:24:07.444Z,64.69
2023-07-25T12:25:07.418Z,64.61
2023-07-25T12:26:07.454Z,65.37
2023-07-25T12:27:07.409Z,65.16
2023-07-25T12:28:07.375Z,65.98
2023-07-25T12:29:07.347Z,65.16
2023-07-25T12:30:07.343Z,64.52
2023-07-25T12:31:07.342Z,64.91
2023-07-25T12:32:07.531Z,64.55
2023-07-25T12:33:07.410Z,64.79
2023-07-25T12:34:07.314Z,64.98
2023-07-25T12:35:07.317Z,64.98
2023-07-25T12:36:07.301Z,64.99
2023-07-25T12:37:07.377Z,64.35
2023-07-25T12:38:07.284Z,65.19
2023-07-25T12:39:07.286Z,63.59
2023-07-25T12:40:07.429Z,64.19
2023-07-25T12:41:07.215Z,63.84
2023-07-25T12:42:07.213Z,62.62
2023-07-25T12:43:07.212Z,62.73
2023-07-25T12:44:07.202Z,62.60
2023-07-25T12:45:10.470Z,62.58
2023-07-25T12:46:07.263Z,60.38
2023-07-25T12:47:07.188Z,60.37
2023-07-25T12:48:07.138Z,58.16
2023-07-25T12:49:07.129Z,59.54
2023-07-25T12:50:07.138Z,59.40
2023-07-25T12:51:07.159Z,59.02
2023-07-25T12:52:07.140Z,58.32
2023-07-25T12:53:07.111Z,58.48
2023-07-25T12:54:07.079Z,58.60
2023-07-25T12:55:07.069Z,56.94
2023-07-25T12:56:07.073Z,58.28
2023-07-25T12:57:07.080Z,58.60
2023-07-25T12:58:07.058Z,58.47
2023-07-25T12:59:07.248Z,58.66
2023-07-25T13:00:07.406Z,59.78
2023-07-25T13:01:07.063Z,59.48
2023-07-25T13:02:07.047Z,59.75
2023-07-25T13:03:07.059Z,57.93
2023-07-25T13:04:07.205Z,60.17
2023-07-25T13:05:06.949Z,58.93
2023-07-25T13:06:07.160Z,59.54
2023-07-25T13:07:06.971Z,58.43
2023-07-25T13:08:07.026Z,60.40
2023-07-25T13:09:07.052Z,60.11
2023-07-25T13:10:06.891Z,60.93
2023-07-25T13:11:07.457Z,60.28
2023-07-25T13:12:07.005Z,61.40
2023-07-25T13:13:06.909Z,60.13
2023-07-25T13:14:06.951Z,61.38
2023-07-25T13:15:06.865Z,61.57
2023-07-25T13:16:06.924Z,61.41